Dong Fang You 2 — BXEC — position and weather

sailwx.info

Track history (hours):
 
Tides and Currents Weather Stations Pressure Air Temp Water Temp Dewpoint Dewpoint Depression Visibility Wind Speed Wind Dir Waves Ship Positions

Dong Fang You 2

Last reported at 2014-Nov-11 23:33 UTC. Time now 2014-Nov-23 07:29 UTC.
Position N 20°10' E 110°17'.
Warning: this ship's position is 11 days out of date.

Length 82 m; draft 4.5 m.

MMSI: 412464680.

Date/timePositionNaut miles runAvg speedWind from/ knotsBaromVisibWave heightAir tempDewpointWater temp
2014-Nov-11 23:33N 20°10' E 110°17'  
2014-Nov-05 10:10N 20°11' E 110°10'5 8.3
2014-Nov-05 09:32N 20°11' E 110°16'182 8.6
2014-Nov-04 12:24N 21°42' E 113°05'8 9.3
2014-Nov-04 11:33N 21°46' E 113°12'30 9.5
2014-Nov-04 08:26N 22°04' E 113°38'8 8.8
2014-Nov-04 07:33N 22°11' E 113°42'9 8.6
2014-Nov-04 06:33N 22°17' E 113°48'39 9.7
2014-Nov-04 02:33N 22°54' E 113°34'2 0.1
2014-Nov-03 09:07N 22°56' E 113°34'2 3.4
2014-Nov-03 08:33N 22°54' E 113°34'3 2.6
2014-Nov-03 07:27N 22°51' E 113°34'0 0.0
2014-Nov-03 06:29N 22°51' E 113°34'0 0.1
2014-Nov-03 05:29N 22°51' E 113°34'0 0.2
2014-Nov-03 04:32N 22°51' E 113°34'0 0.1
2014-Nov-03 03:33N 22°51' E 113°34'0 0.0
2014-Nov-03 02:32N 22°51' E 113°34'0 0.0
2014-Nov-03 01:28N 22°51' E 113°34'0 0.0
2014-Nov-03 00:32N 22°51' E 113°34'0 0.1
2014-Nov-02 23:31N 22°51' E 113°34'0 0.0
2014-Nov-02 22:33N 22°51' E 113°34'0 0.0
2014-Nov-02 21:33N 22°51' E 113°34'0 0.1
2014-Nov-02 20:33N 22°51' E 113°34'0 0.0
2014-Nov-02 19:34N 22°51' E 113°34'0 0.0
2014-Nov-02 18:33N 22°51' E 113°34'0 0.0
2014-Nov-02 17:33N 22°51' E 113°34'0 0.0
2014-Nov-02 16:33N 22°51' E 113°34'0 0.0
2014-Nov-02 15:33N 22°51' E 113°34'0 0.0
2014-Nov-02 14:32N 22°51' E 113°34'0 0.0
2014-Nov-02 13:33N 22°51' E 113°34'0 0.1
2014-Nov-02 12:33N 22°51' E 113°34'0 0.1
2014-Nov-02 11:33N 22°51' E 113°34'0 0.2
2014-Nov-02 10:32N 22°51' E 113°34'28 9.2
2014-Nov-02 07:32N 22°25' E 113°46'9 9.4
2014-Nov-02 06:34N 22°16' E 113°48'7 7.3
2014-Nov-02 05:33N 22°11' E 113°43'7 7.0
2014-Nov-02 04:33N 22°05' E 113°39'27 7.8
2014-Nov-02 01:07N 21°49' E 113°15'6 8.3
2014-Nov-02 00:23N 21°45' E 113°10'  
Track history (hours):
 
Tides and Currents Weather Stations Pressure Air Temp Water Temp Dewpoint Dewpoint Depression Visibility Wind Speed Wind Dir Waves Ship Positions

Dong Fang You 2

Last reported at 2014-Nov-11 23:33 UTC. Time now 2014-Nov-23 07:29 UTC.
Position N 20°10' E 110°17'.
Warning: this ship's position is 11 days out of date.

Length 82 m; draft 4.5 m.

MMSI: 412464680.

Date/timePositionNaut miles runAvg speedWind from/ knotsBaromVisibWave heightAir tempDewpointWater temp
2014-Nov-11 23:33N 20°10' E 110°17'  
2014-Nov-05 10:10N 20°11' E 110°10'5 8.3
2014-Nov-05 09:32N 20°11' E 110°16'182 8.6
2014-Nov-04 12:24N 21°42' E 113°05'8 9.3
2014-Nov-04 11:33N 21°46' E 113°12'30 9.5
2014-Nov-04 08:26N 22°04' E 113°38'8 8.8
2014-Nov-04 07:33N 22°11' E 113°42'9 8.6
2014-Nov-04 06:33N 22°17' E 113°48'39 9.7
2014-Nov-04 02:33N 22°54' E 113°34'2 0.1
2014-Nov-03 09:07N 22°56' E 113°34'2 3.4
2014-Nov-03 08:33N 22°54' E 113°34'3 2.6
2014-Nov-03 07:27N 22°51' E 113°34'0 0.0
2014-Nov-03 06:29N 22°51' E 113°34'0 0.1
2014-Nov-03 05:29N 22°51' E 113°34'0 0.2
2014-Nov-03 04:32N 22°51' E 113°34'0 0.1
2014-Nov-03 03:33N 22°51' E 113°34'0 0.0
2014-Nov-03 02:32N 22°51' E 113°34'0 0.0
2014-Nov-03 01:28N 22°51' E 113°34'0 0.0
2014-Nov-03 00:32N 22°51' E 113°34'0 0.1
2014-Nov-02 23:31N 22°51' E 113°34'0 0.0
2014-Nov-02 22:33N 22°51' E 113°34'0 0.0
2014-Nov-02 21:33N 22°51' E 113°34'0 0.1
2014-Nov-02 20:33N 22°51' E 113°34'0 0.0
2014-Nov-02 19:34N 22°51' E 113°34'0 0.0
2014-Nov-02 18:33N 22°51' E 113°34'0 0.0
2014-Nov-02 17:33N 22°51' E 113°34'0 0.0
2014-Nov-02 16:33N 22°51' E 113°34'0 0.0
2014-Nov-02 15:33N 22°51' E 113°34'0 0.0
2014-Nov-02 14:32N 22°51' E 113°34'0 0.0
2014-Nov-02 13:33N 22°51' E 113°34'0 0.1
2014-Nov-02 12:33N 22°51' E 113°34'0 0.1
2014-Nov-02 11:33N 22°51' E 113°34'0 0.2
2014-Nov-02 10:32N 22°51' E 113°34'28 9.2
2014-Nov-02 07:32N 22°25' E 113°46'9 9.4
2014-Nov-02 06:34N 22°16' E 113°48'7 7.3
2014-Nov-02 05:33N 22°11' E 113°43'7 7.0
2014-Nov-02 04:33N 22°05' E 113°39'27 7.8
2014-Nov-02 01:07N 21°49' E 113°15'6 8.3
2014-Nov-02 00:23N 21°45' E 113°10'  

Dump ship's entire track history